EGPN

Dundee Airport

Dundee, United Kingdom
METAR EGPN 171920Z 26010KT 9999 FEW048 18/11 Q1012
Observed Flight Rules
Jul-17 @ 19:20 UTC (4 hours ago) Visual Flight Rules
Wind Visibility Clouds
260° at 10 knots 10,000+ meters
  • Few at 4,800' AGL
Temperatures Readings
Current 18°C / 64°F
Dewpoint 11°C / 52°F
Humidity 64%
Altimeter 29.88" Hg
Pressure 1012 hPa
Elevation 4
METAR EGPN 171920Z 26010KT 9999 FEW048 18/11 Q1012
Observed Flight Rules
Jul-17 @ 19:20 UTC
(4 hours ago)
VFR
Wind Visibility
260° at 10 knots 10,000+ meters
Clouds
  • Few at 4,800' AGL
Temperature Dewpoint
18°C / 64°F 11°C / 52°F
Humidity Altimeter Pressure
64% 29.88" Hg 1012 hPa